< < Back
Terminal Aerodrome Forecast


Current Version              Previous Versions:   1  2  3  4  5  6  7  8  9  

Terminal Aerodrome Forecast

284
FTUS42 KTAE 281100
TAFVLD
TAF
KVLD 281129Z 2812/2912 03004KT P6SM SKC=



Latest METAR

277
SAUS70 KWBC 290100 RRF
MTRVLD
METAR KVLD 290053Z AUTO 00000KT 10SM CLR 03/01 A3033 RMK AO2 SLP281
T00330011 $


USA.gov is the U.S. government's official web portal to all federal, state and local government web resources and services.